Time;durP1;ratioP1;P1;durP2;ratioP2;P2;SDS_P1;SDS_P2;PMS_P1;PMS_P2;Temp;Humidity;BMP_temperature;BMP_pressure;BME280_temperature;BME280_humidity;BME280_pressure;Samples;Min_cycle;Max_cycle;Signal;HPM_P1;HPM_P2
2023/07/14 00:01:42;;;;;;;5.25;2.20;;;;;;;;;;5153908;27;20194;-66
2023/07/14 00:04:12;;;;;;;3.42;2.15;;;;;;;;;;5153824;27;20499;-66
2023/07/14 00:06:40;;;;;;;2.53;1.83;;;;;;;;;;5153724;27;20194;-66
2023/07/14 00:09:13;;;;;;;5.00;1.92;;;;;;;;;;5153923;27;20201;-66
2023/07/14 00:11:39;;;;;;;1.77;1.55;;;;;;;;;;5145602;27;20218;-66
2023/07/14 00:14:05;;;;;;;3.42;1.75;;;;;;;;;;5153583;27;20534;-66
2023/07/14 00:16:32;;;;;;;3.47;1.70;;;;;;;;;;5156243;27;20220;-66
2023/07/14 00:18:58;;;;;;;6.82;2.22;;;;;;;;;;5157245;27;20197;-66
2023/07/14 00:21:26;;;;;;;1.70;1.60;;;;;;;;;;5155745;27;20198;-66
2023/07/14 00:23:57;;;;;;;1.98;1.52;;;;;;;;;;5153595;27;20197;-66
2023/07/14 00:26:23;;;;;;;2.70;2.05;;;;;;;;;;5154824;27;20206;-66
2023/07/14 00:28:50;;;;;;;3.83;1.60;;;;;;;;;;5156934;27;20214;-67
2023/07/14 00:31:17;;;;;;;3.72;1.83;;;;;;;;;;5156626;27;20210;-67
2023/07/14 00:33:44;;;;;;;2.10;1.50;;;;;;;;;;5152905;27;20221;-67
2023/07/14 00:36:11;;;;;;;1.75;1.58;;;;;;;;;;5153563;27;20198;-67
2023/07/14 00:38:38;;;;;;;2.75;1.38;;;;;;;;;;5156423;27;20208;-67
2023/07/14 00:41:07;;;;;;;1.73;1.48;;;;;;;;;;5157233;27;20261;-67
2023/07/14 00:43:35;;;;;;;1.65;1.55;;;;;;;;;;5153658;27;20253;-67
2023/07/14 00:46:01;;;;;;;3.78;1.70;;;;;;;;;;5153037;27;20201;-67
2023/07/14 00:48:29;;;;;;;4.47;1.70;;;;;;;;;;5154513;27;20206;-67
2023/07/14 00:50:58;;;;;;;1.40;1.30;;;;;;;;;;5156572;27;20197;-67
2023/07/14 00:53:27;;;;;;;1.70;1.55;;;;;;;;;;5154764;27;20217;-67
2023/07/14 00:55:56;;;;;;;1.92;1.60;;;;;;;;;;5152910;27;20367;-67
2023/07/14 00:58:25;;;;;;;3.40;1.65;;;;;;;;;;5153644;27;20198;-67
2023/07/14 01:01:02;;;;;;;3.22;1.70;;;;;;;;;;5156319;27;20510;-67
2023/07/14 01:03:28;;;;;;;2.60;1.70;;;;;;;;;;5154330;27;20197;-67
2023/07/14 01:05:55;;;;;;;2.33;1.70;;;;;;;;;;5152841;27;20202;-67
2023/07/14 01:08:21;;;;;;;5.35;1.90;;;;;;;;;;5153309;27;20213;-67
2023/07/14 01:10:49;;;;;;;3.42;1.70;;;;;;;;;;5156207;27;20194;-67
2023/07/14 01:13:15;;;;;;;2.92;1.77;;;;;;;;;;5155758;27;20219;-67
2023/07/14 01:15:43;;;;;;;2.60;1.48;;;;;;;;;;5152687;27;20194;-67
2023/07/14 01:18:11;;;;;;;1.65;1.42;;;;;;;;;;5152604;27;20486;-67
2023/07/14 01:20:38;;;;;;;2.80;1.58;;;;;;;;;;5155101;27;20659;-67
2023/07/14 01:23:10;;;;;;;2.97;1.48;;;;;;;;;;5155730;27;20391;-67
2023/07/14 01:25:43;;;;;;;3.65;1.67;;;;;;;;;;5153010;27;20616;-67
2023/07/14 01:28:12;;;;;;;2.05;1.60;;;;;;;;;;5151955;27;20210;-67
2023/07/14 01:30:39;;;;;;;3.40;1.60;;;;;;;;;;5155261;27;20201;-67
2023/07/14 01:33:06;;;;;;;1.88;1.45;;;;;;;;;;5148722;27;20214;-67
2023/07/14 01:35:33;;;;;;;3.92;1.75;;;;;;;;;;5154040;27;20198;-67
2023/07/14 01:38:00;;;;;;;2.92;1.70;;;;;;;;;;5155626;27;20193;-67
2023/07/14 01:40:27;;;;;;;2.33;1.83;;;;;;;;;;5154274;27;20509;-67
2023/07/14 01:42:56;;;;;;;1.85;1.75;;;;;;;;;;5151615;27;20194;-67
2023/07/14 01:45:24;;;;;;;2.53;1.70;;;;;;;;;;5152751;27;20198;-67
2023/07/14 01:47:53;;;;;;;2.22;1.50;;;;;;;;;;5155572;27;20201;-67
2023/07/14 01:50:22;;;;;;;5.35;1.88;;;;;;;;;;5154680;27;20466;-67
2023/07/14 01:52:49;;;;;;;4.32;1.90;;;;;;;;;;5151776;27;20232;-67
2023/07/14 01:55:18;;;;;;;3.63;1.75;;;;;;;;;;5151851;27;20198;-66
2023/07/14 01:57:46;;;;;;;3.17;1.95;;;;;;;;;;5151900;27;20217;-66
2023/07/14 02:00:13;;;;;;;1.85;1.75;;;;;;;;;;5151801;27;20202;-66
2023/07/14 02:02:41;;;;;;;2.28;2.00;;;;;;;;;;5154346;27;20242;-66
2023/07/14 02:05:22;;;;;;;2.63;1.75;;;;;;;;;;5155195;27;20395;-66
2023/07/14 02:07:48;;;;;;;2.67;1.52;;;;;;;;;;5143864;27;20197;-66
2023/07/14 02:10:16;;;;;;;3.92;1.52;;;;;;;;;;5151625;27;20210;-66
2023/07/14 02:12:46;;;;;;;1.90;1.80;;;;;;;;;;5154497;27;20194;-66
2023/07/14 02:15:17;;;;;;;1.90;1.80;;;;;;;;;;5155271;27;20193;-66
2023/07/14 02:17:46;;;;;;;3.28;1.88;;;;;;;;;;5151653;27;20206;-66
2023/07/14 02:20:16;;;;;;;2.70;1.83;;;;;;;;;;5151902;27;20250;-66
2023/07/14 02:22:43;;;;;;;3.47;2.30;;;;;;;;;;5154550;27;20202;-66
2023/07/14 02:25:10;;;;;;;2.95;2.28;;;;;;;;;;5155145;27;20198;-66
2023/07/14 02:27:37;;;;;;;5.22;2.25;;;;;;;;;;5152605;27;20217;-66
2023/07/14 02:30:10;;;;;;;3.40;2.00;;;;;;;;;;5151428;27;20194;-66
2023/07/14 02:32:38;;;;;;;2.42;2.13;;;;;;;;;;5153259;27;20195;-66
2023/07/14 02:35:12;;;;;;;5.43;2.10;;;;;;;;;;5155109;27;20193;-66
2023/07/14 02:38:03;;;;;;;2.38;1.95;;;;;;;;;;5152544;27;20426;-66
2023/07/14 02:40:30;;;;;;;5.40;2.28;;;;;;;;;;5152375;27;20205;-66
2023/07/14 02:42:56;;;;;;;3.70;2.47;;;;;;;;;;5154887;27;20185;-66
2023/07/14 02:45:24;;;;;;;3.83;1.90;;;;;;;;;;5154795;27;20198;-66
2023/07/14 02:47:51;;;;;;;4.22;2.38;;;;;;;;;;5151381;27;20201;-66
2023/07/14 02:50:18;;;;;;;2.50;2.33;;;;;;;;;;5151286;27;20446;-66
2023/07/14 02:52:45;;;;;;;4.88;2.35;;;;;;;;;;5154350;27;20548;-66
2023/07/14 02:55:11;;;;;;;2.75;1.85;;;;;;;;;;5154698;27;20213;-66
2023/07/14 02:57:37;;;;;;;3.25;1.85;;;;;;;;;;5152786;27;20204;-66
2023/07/14 03:00:07;;;;;;;2.45;1.90;;;;;;;;;;5151247;27;20498;-66
2023/07/14 03:02:33;;;;;;;3.47;2.63;;;;;;;;;;5153629;27;20198;-66
2023/07/14 03:05:00;;;;;;;4.20;2.45;;;;;;;;;;5159044;27;20189;-66
2023/07/14 03:07:27;;;;;;;2.38;2.10;;;;;;;;;;5158093;27;20197;-66
2023/07/14 03:09:53;;;;;;;3.15;2.35;;;;;;;;;;5155232;27;20209;-66
2023/07/14 03:12:20;;;;;;;4.63;2.75;;;;;;;;;;5154820;27;20432;-66
2023/07/14 03:14:47;;;;;;;2.90;2.08;;;;;;;;;;5158218;27;20281;-66
2023/07/14 03:17:13;;;;;;;3.47;2.30;;;;;;;;;;5159941;27;20198;-66
2023/07/14 03:19:39;;;;;;;5.45;2.45;;;;;;;;;;5156935;27;20397;-66
2023/07/14 03:22:05;;;;;;;2.50;2.30;;;;;;;;;;5158217;27;20198;-66
2023/07/14 03:24:33;;;;;;;2.65;2.45;;;;;;;;;;5157020;27;20198;-66
2023/07/14 03:26:59;;;;;;;5.07;2.10;;;;;;;;;;5154649;27;20194;-66
2023/07/14 03:29:26;;;;;;;4.57;2.60;;;;;;;;;;5154761;27;20198;-66
2023/07/14 03:31:52;;;;;;;2.13;1.98;;;;;;;;;;5158213;27;20194;-66
2023/07/14 03:34:18;;;;;;;2.75;2.10;;;;;;;;;;5158130;27;20223;-66
2023/07/14 03:36:44;;;;;;;3.05;2.78;;;;;;;;;;5154893;27;20584;-66
2023/07/14 03:39:22;;;;;;;2.30;2.15;;;;;;;;;;5154808;27;20202;-66
2023/07/14 03:41:49;;;;;;;6.50;2.45;;;;;;;;;;5157861;27;20193;-66
2023/07/14 03:44:16;;;;;;;3.75;2.15;;;;;;;;;;5157774;27;20249;-66
2023/07/14 03:46:42;;;;;;;2.72;2.30;;;;;;;;;;5155440;27;20197;-66
2023/07/14 03:49:08;;;;;;;2.70;2.28;;;;;;;;;;5160432;27;20205;-66
2023/07/14 03:51:34;;;;;;;6.35;2.25;;;;;;;;;;5156115;27;20201;-66
2023/07/14 03:54:01;;;;;;;2.28;2.08;;;;;;;;;;5153833;27;20222;-66
2023/07/14 03:56:27;;;;;;;4.85;2.40;;;;;;;;;;5154310;27;20393;-66
2023/07/14 03:58:55;;;;;;;3.28;2.17;;;;;;;;;;5157472;27;20189;-66
2023/07/14 04:01:21;;;;;;;5.55;2.35;;;;;;;;;;5157483;27;20216;-66
2023/07/14 04:03:48;;;;;;;2.75;2.38;;;;;;;;;;5153901;27;20210;-67
2023/07/14 04:06:15;;;;;;;2.72;2.40;;;;;;;;;;5154042;27;20202;-67
2023/07/14 04:08:42;;;;;;;2.15;2.05;;;;;;;;;;5155786;27;20243;-66
2023/07/14 04:11:09;;;;;;;3.40;2.38;;;;;;;;;;5157462;27;20197;-66
2023/07/14 04:13:35;;;;;;;3.45;2.38;;;;;;;;;;5155097;27;20221;-67
2023/07/14 04:16:04;;;;;;;2.88;2.67;;;;;;;;;;5153761;27;20518;-70
2023/07/14 04:18:31;;;;;;;7.38;2.28;;;;;;;;;;5154444;27;20221;-70
2023/07/14 04:20:59;;;;;;;2.38;2.28;;;;;;;;;;5157639;27;20198;-70
2023/07/14 04:23:26;;;;;;;4.63;2.92;;;;;;;;;;5157302;27;20512;-70
2023/07/14 04:25:52;;;;;;;3.95;2.85;;;;;;;;;;5153846;27;20262;-71
2023/07/14 04:28:18;;;;;;;4.53;2.45;;;;;;;;;;5153550;27;20218;-71
2023/07/14 04:30:52;;;;;;;4.28;2.60;;;;;;;;;;5155803;27;20401;-71
2023/07/14 04:33:21;;;;;;;3.33;2.38;;;;;;;;;;5157161;27;20244;-71
2023/07/14 04:35:47;;;;;;;2.95;2.47;;;;;;;;;;5154358;27;20206;-71
2023/07/14 04:38:14;;;;;;;2.97;2.70;;;;;;;;;;5153257;27;20205;-71
2023/07/14 04:40:40;;;;;;;6.40;2.78;;;;;;;;;;5154923;27;20204;-71
2023/07/14 04:43:06;;;;;;;3.88;2.65;;;;;;;;;;5149803;27;20193;-71
2023/07/14 04:45:37;;;;;;;3.35;3.05;;;;;;;;;;5156057;27;20194;-71
2023/07/14 04:48:03;;;;;;;5.93;2.60;;;;;;;;;;5153490;27;20501;-71
2023/07/14 04:50:31;;;;;;;4.50;2.60;;;;;;;;;;5153185;27;20426;-71
2023/07/14 04:52:57;;;;;;;3.38;2.40;;;;;;;;;;5156366;27;20194;-72
2023/07/14 04:55:23;;;;;;;2.53;2.40;;;;;;;;;;5156463;27;20220;-71
2023/07/14 04:57:50;;;;;;;7.75;2.67;;;;;;;;;;5153604;27;20300;-71
2023/07/14 05:00:17;;;;;;;3.20;2.65;;;;;;;;;;5152571;27;20202;-70
2023/07/14 05:02:44;;;;;;;3.20;2.45;;;;;;;;;;5154729;27;20198;-71
2023/07/14 05:05:11;;;;;;;6.13;2.67;;;;;;;;;;5156364;27;20201;-71
2023/07/14 05:07:39;;;;;;;8.25;2.97;;;;;;;;;;5147601;27;20228;-71
2023/07/14 05:10:06;;;;;;;3.58;3.00;;;;;;;;;;5156247;27;20452;-71
2023/07/14 05:12:32;;;;;;;5.03;2.58;;;;;;;;;;5155344;27;20208;-71
2023/07/14 05:15:02;;;;;;;2.58;2.30;;;;;;;;;;5152694;27;20221;-71
2023/07/14 05:17:28;;;;;;;3.10;2.80;;;;;;;;;;5152686;27;20225;-71
2023/07/14 05:19:54;;;;;;;5.70;2.72;;;;;;;;;;5152543;27;20198;-71
2023/07/14 05:22:20;;;;;;;3.25;2.95;;;;;;;;;;5152098;27;20521;-71
2023/07/14 05:24:48;;;;;;;4.90;2.65;;;;;;;;;;5153691;27;20201;-71
2023/07/14 05:27:15;;;;;;;4.78;2.78;;;;;;;;;;5155946;27;20413;-71
2023/07/14 05:29:41;;;;;;;7.13;2.78;;;;;;;;;;5154791;27;20265;-71
2023/07/14 05:32:08;;;;;;;7.35;3.00;;;;;;;;;;5152539;27;20205;-71
2023/07/14 05:34:34;;;;;;;8.48;2.90;;;;;;;;;;5152290;27;20455;-71
2023/07/14 05:37:01;;;;;;;6.93;3.17;;;;;;;;;;5155734;27;20193;-71
2023/07/14 05:39:27;;;;;;;6.15;2.67;;;;;;;;;;5155625;27;20210;-71
2023/07/14 05:41:58;;;;;;;7.88;3.03;;;;;;;;;;5152494;27;20494;-71
2023/07/14 05:44:24;;;;;;;4.65;2.67;;;;;;;;;;5151868;27;20229;-71
2023/07/14 05:46:51;;;;;;;5.22;2.55;;;;;;;;;;5154407;27;20205;-71
2023/07/14 05:49:17;;;;;;;5.07;2.80;;;;;;;;;;5155550;27;20201;-71
2023/07/14 05:51:43;;;;;;;8.38;2.40;;;;;;;;;;5153924;27;20198;-71
2023/07/14 05:54:09;;;;;;;2.83;2.63;;;;;;;;;;5148344;27;20228;-71
2023/07/14 05:56:36;;;;;;;4.18;2.75;;;;;;;;;;5155160;27;20197;-71
2023/07/14 05:59:03;;;;;;;7.85;2.60;;;;;;;;;;5151818;27;20451;-71
2023/07/14 06:01:30;;;;;;;3.55;2.38;;;;;;;;;;5151848;27;20199;-71
2023/07/14 06:03:56;;;;;;;4.43;2.72;;;;;;;;;;5143943;27;20277;-58
2023/07/14 06:06:22;;;;;;;9.23;2.47;;;;;;;;;;5147202;27;20219;-59
2023/07/14 06:08:49;;;;;;;3.20;2.47;;;;;;;;;;5147854;27;20399;-59
2023/07/14 06:11:15;;;;;;;6.32;2.30;;;;;;;;;;5143860;27;20430;-58
2023/07/14 06:13:42;;;;;;;4.47;2.38;;;;;;;;;;5148564;27;20209;-57
2023/07/14 06:16:09;;;;;;;5.25;2.75;;;;;;;;;;5146543;27;20568;-59
2023/07/14 06:18:36;;;;;;;4.45;2.53;;;;;;;;;;5146958;27;20217;-60
2023/07/14 06:21:07;;;;;;;4.38;2.45;;;;;;;;;;5148127;27;20206;-58
2023/07/14 06:23:34;;;;;;;5.10;2.50;;;;;;;;;;5142760;27;20271;-56
2023/07/14 06:26:00;;;;;;;6.85;2.67;;;;;;;;;;5138250;27;20202;-58
2023/07/14 06:28:27;;;;;;;4.30;2.50;;;;;;;;;;5146718;27;20431;-58
2023/07/14 06:30:56;;;;;;;5.88;2.58;;;;;;;;;;5149098;27;20219;-58
2023/07/14 06:33:24;;;;;;;10.15;2.70;;;;;;;;;;5149809;27;20213;-59
2023/07/14 06:35:50;;;;;;;3.85;2.47;;;;;;;;;;5147393;27;20274;-58
2023/07/14 06:38:17;;;;;;;4.22;2.55;;;;;;;;;;5150863;27;20521;-59
2023/07/14 06:40:43;;;;;;;4.05;2.50;;;;;;;;;;5148560;27;20219;-58
2023/07/14 06:43:10;;;;;;;6.47;2.35;;;;;;;;;;5140477;27;20210;-58
2023/07/14 06:45:37;;;;;;;7.40;2.42;;;;;;;;;;5138896;27;20206;-58
2023/07/14 06:48:03;;;;;;;3.75;2.22;;;;;;;;;;5143904;27;20811;-58
2023/07/14 06:50:31;;;;;;;8.23;2.70;;;;;;;;;;5148926;27;20214;-58
2023/07/14 06:52:57;;;;;;;4.15;2.60;;;;;;;;;;5143106;27;20424;-58
2023/07/14 06:55:24;;;;;;;4.00;2.60;;;;;;;;;;5141646;27;20222;-58
2023/07/14 06:57:50;;;;;;;10.80;3.10;;;;;;;;;;5141624;27;20410;-59
2023/07/14 07:00:16;;;;;;;7.75;2.55;;;;;;;;;;5149332;27;20218;-59
2023/07/14 07:02:43;;;;;;;4.15;2.42;;;;;;;;;;5144033;27;20210;-58
2023/07/14 07:05:10;;;;;;;7.60;2.47;;;;;;;;;;5152655;27;20415;-59
2023/07/14 07:07:38;;;;;;;8.40;2.35;;;;;;;;;;5147462;27;20217;-59
2023/07/14 07:10:04;;;;;;;5.78;2.28;;;;;;;;;;5148844;27;20397;-59
2023/07/14 07:12:31;;;;;;;6.07;2.20;;;;;;;;;;5148414;27;20233;-59
2023/07/14 07:14:57;;;;;;;6.55;2.35;;;;;;;;;;5151496;27;20226;-60
2023/07/14 07:17:23;;;;;;;8.32;2.15;;;;;;;;;;5141145;27;20439;-59
2023/07/14 07:19:49;;;;;;;8.13;2.20;;;;;;;;;;5145804;27;20211;-60
2023/07/14 07:22:16;;;;;;;9.98;2.45;;;;;;;;;;5152325;27;20214;-59
2023/07/14 07:24:44;;;;;;;7.72;2.15;;;;;;;;;;5150350;27;20206;-58
2023/07/14 07:27:10;;;;;;;6.45;2.38;;;;;;;;;;5147487;27;20434;-59
2023/07/14 07:29:36;;;;;;;7.18;2.05;;;;;;;;;;5148516;27;20206;-59
2023/07/14 07:32:04;;;;;;;7.25;2.15;;;;;;;;;;5150930;27;20405;-59
2023/07/14 07:34:30;;;;;;;4.00;1.98;;;;;;;;;;5143005;27;20257;-59
2023/07/14 07:36:56;;;;;;;5.88;1.80;;;;;;;;;;5146723;27;20630;-59
2023/07/14 07:39:23;;;;;;;4.28;1.95;;;;;;;;;;5147070;27;20217;-60
2023/07/14 07:41:50;;;;;;;5.10;1.70;;;;;;;;;;5144442;27;20213;-60
2023/07/14 07:44:17;;;;;;;5.47;2.28;;;;;;;;;;5142737;27;20213;-58
2023/07/14 07:46:43;;;;;;;6.20;2.08;;;;;;;;;;5142902;27;20232;-60
2023/07/14 07:49:09;;;;;;;5.28;1.73;;;;;;;;;;5147133;27;20206;-58
2023/07/14 07:51:35;;;;;;;4.88;1.90;;;;;;;;;;5146764;27;20210;-60
2023/07/14 07:54:02;;;;;;;6.05;1.80;;;;;;;;;;5151057;27;20206;-60
2023/07/14 07:56:28;;;;;;;5.25;1.55;;;;;;;;;;5147006;27;20224;-58
2023/07/14 07:58:56;;;;;;;3.97;1.70;;;;;;;;;;5141174;27;20409;-59
2023/07/14 08:01:23;;;;;;;7.68;1.83;;;;;;;;;;5144226;27;20222;-60
2023/07/14 08:03:51;;;;;;;6.20;1.77;;;;;;;;;;5147366;27;20209;-59
2023/07/14 08:06:17;;;;;;;4.63;1.80;;;;;;;;;;5138657;27;20410;-59
2023/07/14 08:08:44;;;;;;;5.82;1.70;;;;;;;;;;5148249;27;20211;-60
2023/07/14 08:11:11;;;;;;;3.67;1.60;;;;;;;;;;5144573;27;20216;-59
2023/07/14 08:13:38;;;;;;;3.33;1.42;;;;;;;;;;5147526;27;20215;-59
2023/07/14 08:16:05;;;;;;;4.03;1.63;;;;;;;;;;5147544;27;20222;-59
2023/07/14 08:18:32;;;;;;;4.53;1.20;;;;;;;;;;5144547;27;20210;-60
2023/07/14 08:21:01;;;;;;;2.58;1.60;;;;;;;;;;5150031;27;20512;-59
2023/07/14 08:23:27;;;;;;;3.67;1.40;;;;;;;;;;5143938;27;20234;-59
2023/07/14 08:25:54;;;;;;;5.15;1.30;;;;;;;;;;5144403;27;20210;-58
2023/07/14 08:28:21;;;;;;;8.35;1.67;;;;;;;;;;5145809;27;20229;-59
2023/07/14 08:30:48;;;;;;;2.30;1.33;;;;;;;;;;5144880;27;20209;-60
2023/07/14 08:33:15;;;;;;;2.67;1.30;;;;;;;;;;5145987;27;20403;-59
2023/07/14 08:35:42;;;;;;;4.47;1.50;;;;;;;;;;5147008;27;20221;-59
2023/07/14 08:38:08;;;;;;;5.38;1.40;;;;;;;;;;5130273;27;20205;-60
2023/07/14 08:40:37;;;;;;;3.33;1.40;;;;;;;;;;5141860;27;20201;-60
2023/07/14 08:43:14;;;;;;;3.47;1.27;;;;;;;;;;5143280;27;20406;-60
2023/07/14 08:45:45;;;;;;;2.83;1.70;;;;;;;;;;5142435;27;20205;-60
2023/07/14 08:48:22;;;;;;;3.92;1.42;;;;;;;;;;5139290;27;20437;-60
2023/07/14 08:50:51;;;;;;;1.95;1.38;;;;;;;;;;5145124;27;20205;-59
2023/07/14 08:53:20;;;;;;;2.35;1.17;;;;;;;;;;5147217;27;20210;-59
2023/07/14 08:55:47;;;;;;;6.22;1.27;;;;;;;;;;5147281;27;20481;-59
2023/07/14 08:58:16;;;;;;;4.85;1.40;;;;;;;;;;5144819;27;20205;-58
2023/07/14 09:00:44;;;;;;;3.75;1.38;;;;;;;;;;5140316;27;20213;-59
2023/07/14 09:03:13;;;;;;;3.55;1.60;;;;;;;;;;5137339;27;20209;-59
2023/07/14 09:05:40;;;;;;;3.33;1.48;;;;;;;;;;5138212;27;20221;-59
2023/07/14 09:08:10;;;;;;;2.92;1.15;;;;;;;;;;5144243;27;20285;-59
2023/07/14 09:10:42;;;;;;;1.75;1.30;;;;;;;;;;5147128;27;20367;-59
2023/07/14 09:13:14;;;;;;;5.55;1.38;;;;;;;;;;5147589;27;20209;-59
2023/07/14 09:15:41;;;;;;;2.80;1.30;;;;;;;;;;5146800;27;20224;-59
2023/07/14 09:18:18;;;;;;;1.20;1.10;;;;;;;;;;5139670;27;20541;-59
2023/07/14 09:20:53;;;;;;;1.27;1.10;;;;;;;;;;5142125;27;20214;-59
2023/07/14 09:23:29;;;;;;;2.30;1.27;;;;;;;;;;5139338;27;20204;-58
2023/07/14 09:25:57;;;;;;;1.65;1.00;;;;;;;;;;5147954;27;20373;-59
2023/07/14 09:28:26;;;;;;;6.85;1.35;;;;;;;;;;5146836;27;20607;-59
2023/07/14 09:30:53;;;;;;;1.20;1.00;;;;;;;;;;5145832;27;20422;-59
2023/07/14 09:33:21;;;;;;;3.13;1.02;;;;;;;;;;5142148;27;20513;-59
2023/07/14 09:35:48;;;;;;;4.07;1.15;;;;;;;;;;5139587;27;20232;-59
2023/07/14 09:38:16;;;;;;;4.10;1.33;;;;;;;;;;5146468;27;20300;-60
2023/07/14 09:40:44;;;;;;;3.00;1.50;;;;;;;;;;5139195;27;20214;-60
2023/07/14 09:43:11;;;;;;;1.40;1.17;;;;;;;;;;5141114;27;20272;-58
2023/07/14 09:45:38;;;;;;;3.30;1.13;;;;;;;;;;5145206;27;20443;-60
2023/07/14 09:48:06;;;;;;;3.30;1.25;;;;;;;;;;5139379;27;20205;-59
2023/07/14 09:50:35;;;;;;;1.42;1.10;;;;;;;;;;5144485;27;20207;-58
2023/07/14 09:53:03;;;;;;;1.65;1.00;;;;;;;;;;5146946;27;20517;-59
2023/07/14 09:55:31;;;;;;;4.07;1.40;;;;;;;;;;5145875;27;20228;-60
2023/07/14 09:57:58;;;;;;;3.70;1.40;;;;;;;;;;5142725;27;20243;-60
2023/07/14 10:00:25;;;;;;;3.90;0.98;;;;;;;;;;5139032;27;20213;-59
2023/07/14 10:03:03;;;;;;;4.50;1.20;;;;;;;;;;5143837;27;20210;-58
2023/07/14 10:05:41;;;;;;;2.00;1.10;;;;;;;;;;5140226;27;20202;-59
2023/07/14 10:08:22;;;;;;;3.05;1.15;;;;;;;;;;5145663;27;20204;-59
2023/07/14 10:10:49;;;;;;;3.60;1.13;;;;;;;;;;5139308;27;20413;-59
2023/07/14 10:13:19;;;;;;;2.95;1.20;;;;;;;;;;5138322;27;20253;-59
2023/07/14 10:15:53;;;;;;;11.60;1.25;;;;;;;;;;5141689;27;20232;-60
2023/07/14 10:18:20;;;;;;;6.45;1.23;;;;;;;;;;5133165;27;20241;-60
2023/07/14 10:20:55;;;;;;;4.57;1.25;;;;;;;;;;5140618;27;20209;-59
2023/07/14 10:23:24;;;;;;;4.90;1.25;;;;;;;;;;5143231;27;20401;-59
2023/07/14 10:25:51;;;;;;;1.52;1.02;;;;;;;;;;5145578;27;20505;-58
2023/07/14 10:28:22;;;;;;;2.10;1.10;;;;;;;;;;5141588;27;20560;-60
2023/07/14 10:30:53;;;;;;;3.22;1.10;;;;;;;;;;5139481;27;20453;-60
2023/07/14 10:33:22;;;;;;;2.85;1.20;;;;;;;;;;5137639;27;20213;-60
2023/07/14 10:35:51;;;;;;;4.20;1.45;;;;;;;;;;5143473;27;20578;-60
2023/07/14 10:38:20;;;;;;;2.25;1.20;;;;;;;;;;5140209;27;20542;-60
2023/07/14 10:40:48;;;;;;;2.38;1.10;;;;;;;;;;5137089;27;20216;-60
2023/07/14 10:43:18;;;;;;;3.75;1.25;;;;;;;;;;5138295;27;20212;-60
2023/07/14 10:45:49;;;;;;;2.80;1.13;;;;;;;;;;5144623;27;20202;-60
2023/07/14 10:48:18;;;;;;;4.03;1.48;;;;;;;;;;5131025;27;20215;-60
2023/07/14 10:50:55;;;;;;;2.55;0.98;;;;;;;;;;5140669;27;20209;-60
2023/07/14 10:53:23;;;;;;;4.03;1.20;;;;;;;;;;5144737;27;20201;-59
2023/07/14 10:55:51;;;;;;;1.27;0.85;;;;;;;;;;5148715;27;20223;-60
2023/07/14 10:58:19;;;;;;;3.10;1.20;;;;;;;;;;5140546;27;20205;-59
2023/07/14 11:00:50;;;;;;;3.83;1.10;;;;;;;;;;5146405;27;20926;-60
2023/07/14 11:03:22;;;;;;;1.20;1.10;;;;;;;;;;5139079;27;20433;-60
2023/07/14 11:05:53;;;;;;;2.92;1.17;;;;;;;;;;5140585;27;20402;-60
2023/07/14 11:08:20;;;;;;;3.40;1.00;;;;;;;;;;5137863;27;20220;-58
2023/07/14 11:10:48;;;;;;;3.00;1.10;;;;;;;;;;5139316;27;20221;-59
2023/07/14 11:13:19;;;;;;;2.55;1.20;;;;;;;;;;5148022;27;20210;-59
2023/07/14 11:15:51;;;;;;;3.63;1.35;;;;;;;;;;5149175;27;20563;-58
2023/07/14 11:18:25;;;;;;;4.40;1.20;;;;;;;;;;5139333;27;20217;-58
2023/07/14 11:20:56;;;;;;;2.65;0.90;;;;;;;;;;5145610;27;20409;-58
2023/07/14 11:23:27;;;;;;;2.78;1.10;;;;;;;;;;5130365;27;20228;-58
2023/07/14 11:25:58;;;;;;;3.53;1.20;;;;;;;;;;5142620;27;20540;-58
2023/07/14 11:28:33;;;;;;;3.70;1.33;;;;;;;;;;5148862;27;20221;-59
2023/07/14 11:31:02;;;;;;;2.80;1.23;;;;;;;;;;5149041;27;20223;-59
2023/07/14 11:33:33;;;;;;;6.95;1.40;;;;;;;;;;5139454;27;20210;-58
2023/07/14 11:36:01;;;;;;;1.83;1.20;;;;;;;;;;5148498;27;20217;-59
2023/07/14 11:38:33;;;;;;;3.15;1.20;;;;;;;;;;5148362;27;20206;-58
2023/07/14 11:41:00;;;;;;;2.85;1.23;;;;;;;;;;5149131;27;20206;-59
2023/07/14 11:43:29;;;;;;;1.58;1.30;;;;;;;;;;5144363;27;20201;-59
2023/07/14 11:45:57;;;;;;;2.70;1.20;;;;;;;;;;5144614;27;20225;-59
2023/07/14 11:48:32;;;;;;;5.93;1.13;;;;;;;;;;5142601;27;20513;-59
2023/07/14 11:51:10;;;;;;;3.65;1.17;;;;;;;;;;5126492;27;20206;-58
2023/07/14 11:53:38;;;;;;;1.27;1.05;;;;;;;;;;5132046;27;20227;-59
2023/07/14 11:56:21;;;;;;;1.75;1.20;;;;;;;;;;5122713;28;20230;-59
2023/07/14 11:58:50;;;;;;;1.15;1.00;;;;;;;;;;5133138;27;20206;-59
2023/07/14 12:01:17;;;;;;;1.08;1.08;;;;;;;;;;5131631;27;20226;-59
2023/07/14 12:03:49;;;;;;;2.60;0.90;;;;;;;;;;5139385;27;20206;-59
2023/07/14 12:06:23;;;;;;;1.58;1.00;;;;;;;;;;5140225;27;20203;-59
2023/07/14 12:09:00;;;;;;;1.25;1.00;;;;;;;;;;5139550;27;20272;-59
2023/07/14 12:11:27;;;;;;;4.60;1.20;;;;;;;;;;5135552;27;20210;-59
2023/07/14 12:13:53;;;;;;;1.52;0.95;;;;;;;;;;5134481;27;20225;-59
2023/07/14 12:16:22;;;;;;;1.10;1.00;;;;;;;;;;5134279;27;20292;-59
2023/07/14 12:19:00;;;;;;;1.95;1.20;;;;;;;;;;5140793;27;20221;-59
2023/07/14 12:21:32;;;;;;;1.17;1.00;;;;;;;;;;5135689;27;20213;-59
2023/07/14 12:24:00;;;;;;;1.23;0.90;;;;;;;;;;5142252;27;20205;-59
2023/07/14 12:26:31;;;;;;;4.97;1.10;;;;;;;;;;5142639;27;20498;-58
2023/07/14 12:29:00;;;;;;;3.40;1.13;;;;;;;;;;5129182;27;20266;-59
2023/07/14 12:31:34;;;;;;;1.27;1.17;;;;;;;;;;5134087;27;20202;-59
2023/07/14 12:34:03;;;;;;;4.05;1.38;;;;;;;;;;5139284;27;20210;-59
2023/07/14 12:36:31;;;;;;;2.47;1.30;;;;;;;;;;5126821;27;20232;-72
2023/07/14 12:38:58;;;;;;;3.30;1.10;;;;;;;;;;5139920;27;20251;-72
2023/07/14 12:41:25;;;;;;;1.55;1.00;;;;;;;;;;5129508;27;20941;-71
2023/07/14 12:43:53;;;;;;;1.05;0.80;;;;;;;;;;5131494;27;20236;-71
2023/07/14 12:46:23;;;;;;;2.00;1.10;;;;;;;;;;5138818;27;20207;-68
2023/07/14 12:48:50;;;;;;;2.75;0.90;;;;;;;;;;5133767;27;20414;-69
2023/07/14 12:51:19;;;;;;;1.05;0.85;;;;;;;;;;5135253;27;20209;-69
2023/07/14 12:53:49;;;;;;;1.92;1.42;;;;;;;;;;5141528;27;20210;-69
2023/07/14 12:56:16;;;;;;;4.70;1.30;;;;;;;;;;5132299;27;20225;-70
2023/07/14 12:59:18;;;;;;;1.13;1.02;;;;;;;;;;5139973;27;20213;-69
2023/07/14 13:01:44;;;;;;;2.17;1.10;;;;;;;;;;5126615;27;20250;-69
2023/07/14 13:04:11;;;;;;;2.72;1.00;;;;;;;;;;5138840;27;20217;-70
2023/07/14 13:06:40;;;;;;;1.80;0.90;;;;;;;;;;5133834;27;20203;-70
2023/07/14 13:09:08;;;;;;;2.55;1.27;;;;;;;;;;5130727;27;20206;-70
2023/07/14 13:11:37;;;;;;;3.08;1.13;;;;;;;;;;5138601;27;20214;-70
2023/07/14 13:14:04;;;;;;;1.63;0.90;;;;;;;;;;5133876;27;20514;-70
2023/07/14 13:16:36;;;;;;;1.85;1.00;;;;;;;;;;5136455;27;20226;-70
2023/07/14 13:19:04;;;;;;;6.93;1.30;;;;;;;;;;5137705;27;20213;-70
2023/07/14 13:21:34;;;;;;;4.47;1.20;;;;;;;;;;5138099;27;20571;-71
2023/07/14 13:24:08;;;;;;;2.08;1.20;;;;;;;;;;5137802;27;20212;-70
2023/07/14 13:26:46;;;;;;;4.63;1.40;;;;;;;;;;5136569;27;20280;-70
2023/07/14 13:29:14;;;;;;;1.48;1.33;;;;;;;;;;5130770;27;20209;-70
2023/07/14 13:31:42;;;;;;;2.78;1.38;;;;;;;;;;5138737;27;20409;-70
2023/07/14 13:34:13;;;;;;;3.33;1.30;;;;;;;;;;5139089;27;20247;-70
2023/07/14 13:36:39;;;;;;;3.72;1.15;;;;;;;;;;5133254;27;20477;-70
2023/07/14 13:39:08;;;;;;;1.58;1.20;;;;;;;;;;5132539;27;20206;-70
2023/07/14 13:41:45;;;;;;;2.45;1.00;;;;;;;;;;5139468;27;20212;-70
2023/07/14 13:44:30;;;;;;;2.17;1.10;;;;;;;;;;5134372;27;20220;-70
2023/07/14 13:47:00;;;;;;;1.13;1.13;;;;;;;;;;5151039;27;20189;-70
2023/07/14 13:49:26;;;;;;;1.27;1.27;;;;;;;;;;5143763;27;20208;-70
2023/07/14 13:51:53;;;;;;;4.00;1.00;;;;;;;;;;5152281;27;20493;-70
2023/07/14 13:54:20;;;;;;;1.50;1.00;;;;;;;;;;5154792;27;20202;-70
2023/07/14 13:56:49;;;;;;;3.78;1.00;;;;;;;;;;5155787;27;20216;-71
2023/07/14 13:59:18;;;;;;;4.68;1.20;;;;;;;;;;5153593;27;20197;-71
2023/07/14 14:01:44;;;;;;;3.47;1.25;;;;;;;;;;5151778;27;20190;-71
2023/07/14 14:04:12;;;;;;;2.95;1.02;;;;;;;;;;5153065;27;20200;-71
2023/07/14 14:06:39;;;;;;;4.65;1.20;;;;;;;;;;5155748;27;20382;-71
2023/07/14 14:09:11;;;;;;;2.45;1.38;;;;;;;;;;5154881;27;20222;-71
2023/07/14 14:11:37;;;;;;;3.70;1.30;;;;;;;;;;5152066;27;20200;-71
2023/07/14 14:14:05;;;;;;;1.50;1.08;;;;;;;;;;5152087;27;20202;-71
2023/07/14 14:16:32;;;;;;;7.18;1.10;;;;;;;;;;5155220;27;20540;-71
2023/07/14 14:18:58;;;;;;;2.50;1.08;;;;;;;;;;5155491;27;20482;-71
2023/07/14 14:21:25;;;;;;;3.58;0.98;;;;;;;;;;5152041;27;20240;-72
2023/07/14 14:23:51;;;;;;;2.05;1.15;;;;;;;;;;5151783;27;20387;-71
2023/07/14 14:26:17;;;;;;;4.28;1.23;;;;;;;;;;5153898;27;20198;-71
2023/07/14 14:28:44;;;;;;;2.10;0.95;;;;;;;;;;5155129;27;20212;-71
2023/07/14 14:31:12;;;;;;;1.80;1.38;;;;;;;;;;5154158;27;20260;-71
2023/07/14 14:33:38;;;;;;;2.60;1.20;;;;;;;;;;5151757;27;20505;-71
2023/07/14 14:36:05;;;;;;;1.85;1.05;;;;;;;;;;5151992;27;20205;-71
2023/07/14 14:38:32;;;;;;;2.55;1.05;;;;;;;;;;5155141;27;20212;-71
2023/07/14 14:41:00;;;;;;;2.95;1.20;;;;;;;;;;5155403;27;20260;-71
2023/07/14 14:43:27;;;;;;;1.80;1.00;;;;;;;;;;5151629;27;20451;-70
2023/07/14 14:45:54;;;;;;;2.55;1.20;;;;;;;;;;5151821;27;20474;-70
2023/07/14 14:48:24;;;;;;;3.90;1.23;;;;;;;;;;5154180;27;20265;-71
2023/07/14 14:50:51;;;;;;;1.23;1.13;;;;;;;;;;5155250;27;20485;-70